Huvudsida
METAR-TAF:

METAR-TAF

Flygplatser :

Mitiga International Airport

Tripoli, Libyen

latitud: 32-54N, longitud: 13-17E, höjd: 11 m

Aktuellt väderrapport

Denna rapport gjordes för 48 minuter sedan, klockan 14:55 UTC
Vind 15 kt från nord
Temperatur 23°C
Fuktighet 73%
Tryck 1012 hPa
Sikt: 6000 m
Spridda moln på en höjd av 2500 ft
Brutna moln på en höjd av 8000 ft

METAR: HLLM 221455Z 35015KT 6000 SCT025 BKN080 23/18 Q1012

Tid: 17:43 (15:43 UTC)

Väderprognos

Denna rapport gjordes för 4 timmar och 43 minuter sedan, klockan 11:00 UTC
Prognos gäller från 22 kl. 12 UTC till 23 kl. 12 UTC
Vind 10 kt från nord/nordväst
Sikt: 8000 m
Spridda moln på en höjd av 2500 ft
Sannolikhet 40%
från 22 kl. 20 UTC till 23 kl. 06 UTC
Sikt: 5000 m
Brutna moln på en höjd av 1000 ft
fuktdis

TAF: HLLM 221100Z 2212/2312 33010KT 8000 SCT025 PROB40 2220/2306 5000 BR BKN010

Aktuella väderrapporter och prognoser från 4000 flygplatser (METAR- och TAF-rapporter).

De tillgängliga stationerna syns som gula och röda prickar på kartan.

För musen över prickarna för att se namnen på stationerna.

Klicka sedan för att få väderrapporter och prognoser.

För att ändra kartan: Klicka på de gröna knapparna med ett svart kors på för att zooma in; den gröna knappen med ett streck på för att zooma ut; eller på de gröna pilarna för angränsande kartor.


METAR-TAF: